sensor_id;sensor_type;location;lat;lon;timestamp;temperature;humidity
32428;DHT22;18882;50.952;4.366;2022-12-07T00:01:23;6.80;99.90
32428;DHT22;18882;50.952;4.366;2022-12-07T00:03:51;6.60;99.90
32428;DHT22;18882;50.952;4.366;2022-12-07T00:06:18;6.50;99.90
32428;DHT22;18882;50.952;4.366;2022-12-07T00:08:44;6.40;99.90
32428;DHT22;18882;50.952;4.366;2022-12-07T00:11:13;6.30;99.90
32428;DHT22;18882;50.952;4.366;2022-12-07T00:13:39;6.40;99.90
32428;DHT22;18882;50.952;4.366;2022-12-07T00:18:36;5.90;99.90
32428;DHT22;18882;50.952;4.366;2022-12-07T00:21:04;5.90;99.90
32428;DHT22;18882;50.952;4.366;2022-12-07T00:23:30;5.90;99.90
32428;DHT22;18882;50.952;4.366;2022-12-07T00:26:02;6.00;99.90
32428;DHT22;18882;50.952;4.366;2022-12-07T00:28:27;6.00;99.90
32428;DHT22;18882;50.952;4.366;2022-12-07T00:31:00;6.00;99.90
32428;DHT22;18882;50.952;4.366;2022-12-07T00:33:25;5.90;99.90
32428;DHT22;18882;50.952;4.366;2022-12-07T00:35:57;5.80;99.90
32428;DHT22;18882;50.952;4.366;2022-12-07T00:38:24;5.70;99.90
32428;DHT22;18882;50.952;4.366;2022-12-07T00:41:04;5.70;99.90
32428;DHT22;18882;50.952;4.366;2022-12-07T00:43:30;5.70;99.90
32428;DHT22;18882;50.952;4.366;2022-12-07T00:45:56;5.60;99.90
32428;DHT22;18882;50.952;4.366;2022-12-07T00:48:22;5.60;99.90
32428;DHT22;18882;50.952;4.366;2022-12-07T00:50:48;5.70;99.90
32428;DHT22;18882;50.952;4.366;2022-12-07T00:53:15;5.60;99.90
32428;DHT22;18882;50.952;4.366;2022-12-07T00:55:41;5.70;99.90
32428;DHT22;18882;50.952;4.366;2022-12-07T00:58:07;5.60;99.90
32428;DHT22;18882;50.952;4.366;2022-12-07T01:00:34;5.50;99.90
32428;DHT22;18882;50.952;4.366;2022-12-07T01:03:00;5.50;99.90
32428;DHT22;18882;50.952;4.366;2022-12-07T01:05:26;5.30;99.90
32428;DHT22;18882;50.952;4.366;2022-12-07T01:07:52;5.20;99.90
32428;DHT22;18882;50.952;4.366;2022-12-07T01:10:17;5.20;99.90
32428;DHT22;18882;50.952;4.366;2022-12-07T01:12:43;5.10;99.90
32428;DHT22;18882;50.952;4.366;2022-12-07T01:15:09;5.10;99.90
32428;DHT22;18882;50.952;4.366;2022-12-07T01:17:35;5.00;99.90
32428;DHT22;18882;50.952;4.366;2022-12-07T01:20:01;5.00;99.90
32428;DHT22;18882;50.952;4.366;2022-12-07T01:22:27;5.10;99.90
32428;DHT22;18882;50.952;4.366;2022-12-07T01:24:53;5.10;99.90
32428;DHT22;18882;50.952;4.366;2022-12-07T01:27:19;5.20;99.90
32428;DHT22;18882;50.952;4.366;2022-12-07T01:29:44;5.10;99.90
32428;DHT22;18882;50.952;4.366;2022-12-07T01:32:10;5.10;99.90
32428;DHT22;18882;50.952;4.366;2022-12-07T01:34:36;5.10;99.90
32428;DHT22;18882;50.952;4.366;2022-12-07T01:37:01;5.20;99.90
32428;DHT22;18882;50.952;4.366;2022-12-07T01:39:27;5.20;99.90
32428;DHT22;18882;50.952;4.366;2022-12-07T01:41:53;5.40;99.90
32428;DHT22;18882;50.952;4.366;2022-12-07T01:44:27;5.50;99.90
32428;DHT22;18882;50.952;4.366;2022-12-07T01:47:04;5.50;99.90
32428;DHT22;18882;50.952;4.366;2022-12-07T01:49:39;5.50;99.90
32428;DHT22;18882;50.952;4.366;2022-12-07T01:52:16;5.70;99.90
32428;DHT22;18882;50.952;4.366;2022-12-07T01:54:44;5.80;99.90
32428;DHT22;18882;50.952;4.366;2022-12-07T01:57:11;5.90;99.90
32428;DHT22;18882;50.952;4.366;2022-12-07T01:59:37;5.90;99.90
32428;DHT22;18882;50.952;4.366;2022-12-07T02:02:10;5.90;99.90
32428;DHT22;18882;50.952;4.366;2022-12-07T02:04:37;6.10;99.90
32428;DHT22;18882;50.952;4.366;2022-12-07T02:07:04;6.20;99.90
32428;DHT22;18882;50.952;4.366;2022-12-07T02:09:30;6.30;99.90
32428;DHT22;18882;50.952;4.366;2022-12-07T02:11:56;6.30;99.90
32428;DHT22;18882;50.952;4.366;2022-12-07T02:14:22;6.30;99.90
32428;DHT22;18882;50.952;4.366;2022-12-07T02:27:46;6.30;99.90
32428;DHT22;18882;50.952;4.366;2022-12-07T02:30:17;6.30;99.90
32428;DHT22;18882;50.952;4.366;2022-12-07T02:36:19;6.30;99.90
32428;DHT22;18882;50.952;4.366;2022-12-07T02:41:27;6.20;99.90
32428;DHT22;18882;50.952;4.366;2022-12-07T02:43:59;6.10;99.90
32428;DHT22;18882;50.952;4.366;2022-12-07T02:46:39;6.20;99.90
32428;DHT22;18882;50.952;4.366;2022-12-07T02:49:06;6.00;99.90
32428;DHT22;18882;50.952;4.366;2022-12-07T02:51:34;6.00;99.90
32428;DHT22;18882;50.952;4.366;2022-12-07T02:54:13;6.10;99.90
32428;DHT22;18882;50.952;4.366;2022-12-07T02:56:49;6.00;99.90
32428;DHT22;18882;50.952;4.366;2022-12-07T03:10:59;5.70;99.90
32428;DHT22;18882;50.952;4.366;2022-12-07T03:13:48;5.80;99.90
32428;DHT22;18882;50.952;4.366;2022-12-07T03:16:20;5.80;99.90
32428;DHT22;18882;50.952;4.366;2022-12-07T03:19:13;5.70;99.90
32428;DHT22;18882;50.952;4.366;2022-12-07T03:21:44;5.70;99.90
32428;DHT22;18882;50.952;4.366;2022-12-07T03:24:21;5.70;99.90
32428;DHT22;18882;50.952;4.366;2022-12-07T03:26:56;5.60;99.90
32428;DHT22;18882;50.952;4.366;2022-12-07T03:29:31;5.70;99.90
32428;DHT22;18882;50.952;4.366;2022-12-07T03:32:19;5.60;99.90
32428;DHT22;18882;50.952;4.366;2022-12-07T03:34:55;5.60;99.90
32428;DHT22;18882;50.952;4.366;2022-12-07T03:37:29;5.60;99.90
32428;DHT22;18882;50.952;4.366;2022-12-07T03:40:30;5.50;99.90
32428;DHT22;18882;50.952;4.366;2022-12-07T03:42:56;5.40;99.90
32428;DHT22;18882;50.952;4.366;2022-12-07T03:45:31;5.40;99.90
32428;DHT22;18882;50.952;4.366;2022-12-07T03:48:28;5.40;99.90
32428;DHT22;18882;50.952;4.366;2022-12-07T03:51:10;5.40;99.90
32428;DHT22;18882;50.952;4.366;2022-12-07T03:54:00;5.40;99.90
32428;DHT22;18882;50.952;4.366;2022-12-07T03:56:28;5.50;99.90
32428;DHT22;18882;50.952;4.366;2022-12-07T03:58:55;5.40;99.90
32428;DHT22;18882;50.952;4.366;2022-12-07T04:01:22;5.40;99.90
32428;DHT22;18882;50.952;4.366;2022-12-07T04:03:47;5.50;99.90
32428;DHT22;18882;50.952;4.366;2022-12-07T04:06:13;5.40;99.90
32428;DHT22;18882;50.952;4.366;2022-12-07T04:08:39;5.30;99.90
32428;DHT22;18882;50.952;4.366;2022-12-07T04:11:05;5.30;99.90
32428;DHT22;18882;50.952;4.366;2022-12-07T04:13:30;5.30;99.90
32428;DHT22;18882;50.952;4.366;2022-12-07T04:16:16;5.20;99.90
32428;DHT22;18882;50.952;4.366;2022-12-07T04:18:41;5.10;99.90
32428;DHT22;18882;50.952;4.366;2022-12-07T04:21:07;5.10;99.90
32428;DHT22;18882;50.952;4.366;2022-12-07T04:23:32;5.00;99.90
32428;DHT22;18882;50.952;4.366;2022-12-07T04:25:58;5.00;99.90
32428;DHT22;18882;50.952;4.366;2022-12-07T04:28:24;5.10;99.90
32428;DHT22;18882;50.952;4.366;2022-12-07T04:30:49;5.10;99.90
32428;DHT22;18882;50.952;4.366;2022-12-07T04:33:15;5.10;99.90
32428;DHT22;18882;50.952;4.366;2022-12-07T04:35:42;5.20;99.90
32428;DHT22;18882;50.952;4.366;2022-12-07T04:38:08;5.40;99.90
32428;DHT22;18882;50.952;4.366;2022-12-07T04:40:34;5.40;99.90
32428;DHT22;18882;50.952;4.366;2022-12-07T04:43:00;5.40;99.90
32428;DHT22;18882;50.952;4.366;2022-12-07T04:45:25;5.30;99.90
32428;DHT22;18882;50.952;4.366;2022-12-07T04:47:51;5.20;99.90
32428;DHT22;18882;50.952;4.366;2022-12-07T04:50:16;5.10;99.90
32428;DHT22;18882;50.952;4.366;2022-12-07T04:52:42;5.10;99.90
32428;DHT22;18882;50.952;4.366;2022-12-07T04:55:08;5.00;99.90
32428;DHT22;18882;50.952;4.366;2022-12-07T04:57:34;4.90;99.90
32428;DHT22;18882;50.952;4.366;2022-12-07T04:59:59;4.80;99.90
32428;DHT22;18882;50.952;4.366;2022-12-07T05:02:25;4.80;99.90
32428;DHT22;18882;50.952;4.366;2022-12-07T05:04:51;4.80;99.90
32428;DHT22;18882;50.952;4.366;2022-12-07T05:07:16;4.80;99.90
32428;DHT22;18882;50.952;4.366;2022-12-07T05:09:42;4.80;99.90
32428;DHT22;18882;50.952;4.366;2022-12-07T05:12:07;4.70;99.90
32428;DHT22;18882;50.952;4.366;2022-12-07T05:14:33;4.70;99.90
32428;DHT22;18882;50.952;4.366;2022-12-07T05:17:00;4.70;99.90
32428;DHT22;18882;50.952;4.366;2022-12-07T05:19:30;4.60;99.90
32428;DHT22;18882;50.952;4.366;2022-12-07T05:21:55;4.70;99.90
32428;DHT22;18882;50.952;4.366;2022-12-07T05:24:21;4.60;99.90
32428;DHT22;18882;50.952;4.366;2022-12-07T05:26:47;4.70;99.90
32428;DHT22;18882;50.952;4.366;2022-12-07T05:29:14;4.70;99.90
32428;DHT22;18882;50.952;4.366;2022-12-07T05:31:40;4.60;99.90
32428;DHT22;18882;50.952;4.366;2022-12-07T05:34:06;4.60;99.90
32428;DHT22;18882;50.952;4.366;2022-12-07T05:36:31;4.70;99.90
32428;DHT22;18882;50.952;4.366;2022-12-07T05:38:57;4.80;99.90
32428;DHT22;18882;50.952;4.366;2022-12-07T05:41:23;4.80;99.90
32428;DHT22;18882;50.952;4.366;2022-12-07T05:44:07;4.90;99.90
32428;DHT22;18882;50.952;4.366;2022-12-07T05:46:33;5.10;99.90
32428;DHT22;18882;50.952;4.366;2022-12-07T05:48:59;5.10;99.90
32428;DHT22;18882;50.952;4.366;2022-12-07T05:51:24;5.10;99.90
32428;DHT22;18882;50.952;4.366;2022-12-07T05:53:50;5.10;99.90
32428;DHT22;18882;50.952;4.366;2022-12-07T05:56:16;5.00;99.90
32428;DHT22;18882;50.952;4.366;2022-12-07T05:58:41;5.10;99.90
32428;DHT22;18882;50.952;4.366;2022-12-07T06:01:25;5.20;99.90
32428;DHT22;18882;50.952;4.366;2022-12-07T06:03:51;5.30;99.90
32428;DHT22;18882;50.952;4.366;2022-12-07T06:06:17;5.40;99.90
32428;DHT22;18882;50.952;4.366;2022-12-07T06:08:42;5.50;99.90
32428;DHT22;18882;50.952;4.366;2022-12-07T06:11:08;5.50;99.90
32428;DHT22;18882;50.952;4.366;2022-12-07T06:13:52;5.50;99.90
32428;DHT22;18882;50.952;4.366;2022-12-07T06:16:18;5.40;99.90
32428;DHT22;18882;50.952;4.366;2022-12-07T06:18:43;5.40;99.90
32428;DHT22;18882;50.952;4.366;2022-12-07T06:21:09;5.40;99.90
32428;DHT22;18882;50.952;4.366;2022-12-07T06:23:35;5.50;99.90
32428;DHT22;18882;50.952;4.366;2022-12-07T06:26:00;5.40;99.90
32428;DHT22;18882;50.952;4.366;2022-12-07T06:28:27;5.10;99.90
32428;DHT22;18882;50.952;4.366;2022-12-07T06:31:00;5.10;99.90
32428;DHT22;18882;50.952;4.366;2022-12-07T06:33:26;5.20;99.90
32428;DHT22;18882;50.952;4.366;2022-12-07T06:35:52;5.20;99.90
32428;DHT22;18882;50.952;4.366;2022-12-07T06:38:18;5.20;99.90
32428;DHT22;18882;50.952;4.366;2022-12-07T06:40:43;5.40;99.90
32428;DHT22;18882;50.952;4.366;2022-12-07T06:43:14;5.50;99.90
32428;DHT22;18882;50.952;4.366;2022-12-07T06:45:46;5.60;99.90
32428;DHT22;18882;50.952;4.366;2022-12-07T06:48:11;5.40;99.90
32428;DHT22;18882;50.952;4.366;2022-12-07T06:50:38;5.40;99.90
32428;DHT22;18882;50.952;4.366;2022-12-07T06:53:04;5.40;99.90
32428;DHT22;18882;50.952;4.366;2022-12-07T06:55:30;5.50;99.90
32428;DHT22;18882;50.952;4.366;2022-12-07T06:57:55;5.20;99.90
32428;DHT22;18882;50.952;4.366;2022-12-07T07:00:21;5.10;99.90
32428;DHT22;18882;50.952;4.366;2022-12-07T07:02:49;5.10;99.90
32428;DHT22;18882;50.952;4.366;2022-12-07T07:05:15;5.20;99.90
32428;DHT22;18882;50.952;4.366;2022-12-07T07:07:41;5.10;99.90
32428;DHT22;18882;50.952;4.366;2022-12-07T07:10:07;5.10;99.90
32428;DHT22;18882;50.952;4.366;2022-12-07T07:12:33;5.20;99.90
32428;DHT22;18882;50.952;4.366;2022-12-07T07:14:59;5.40;99.90
32428;DHT22;18882;50.952;4.366;2022-12-07T07:17:24;5.40;99.90
32428;DHT22;18882;50.952;4.366;2022-12-07T07:19:50;5.20;99.90
32428;DHT22;18882;50.952;4.366;2022-12-07T07:22:16;5.10;99.90
32428;DHT22;18882;50.952;4.366;2022-12-07T07:24:43;5.00;99.90
32428;DHT22;18882;50.952;4.366;2022-12-07T07:27:08;4.80;99.90
32428;DHT22;18882;50.952;4.366;2022-12-07T07:29:34;4.80;99.90
32428;DHT22;18882;50.952;4.366;2022-12-07T07:32:04;4.70;99.90
32428;DHT22;18882;50.952;4.366;2022-12-07T07:34:30;4.60;99.90
32428;DHT22;18882;50.952;4.366;2022-12-07T07:36:55;4.60;99.90
32428;DHT22;18882;50.952;4.366;2022-12-07T07:39:21;4.50;99.90
32428;DHT22;18882;50.952;4.366;2022-12-07T07:41:47;4.40;99.90
32428;DHT22;18882;50.952;4.366;2022-12-07T07:44:13;4.40;99.90
32428;DHT22;18882;50.952;4.366;2022-12-07T07:46:38;4.40;99.90
32428;DHT22;18882;50.952;4.366;2022-12-07T07:49:04;4.50;99.90
32428;DHT22;18882;50.952;4.366;2022-12-07T07:51:30;4.60;99.90
32428;DHT22;18882;50.952;4.366;2022-12-07T07:53:57;4.50;99.90
32428;DHT22;18882;50.952;4.366;2022-12-07T07:56:23;4.40;99.90
32428;DHT22;18882;50.952;4.366;2022-12-07T07:59:18;4.30;99.90
32428;DHT22;18882;50.952;4.366;2022-12-07T08:01:44;4.40;99.90
32428;DHT22;18882;50.952;4.366;2022-12-07T08:04:10;4.30;99.90
32428;DHT22;18882;50.952;4.366;2022-12-07T08:06:56;4.30;99.90
32428;DHT22;18882;50.952;4.366;2022-12-07T08:09:23;4.40;99.90
32428;DHT22;18882;50.952;4.366;2022-12-07T08:11:49;4.30;99.90
32428;DHT22;18882;50.952;4.366;2022-12-07T08:14:14;4.20;99.90
32428;DHT22;18882;50.952;4.366;2022-12-07T08:16:40;4.20;99.90
32428;DHT22;18882;50.952;4.366;2022-12-07T08:19:06;4.20;99.90
32428;DHT22;18882;50.952;4.366;2022-12-07T08:21:32;4.20;99.90
32428;DHT22;18882;50.952;4.366;2022-12-07T08:23:58;4.30;99.90
32428;DHT22;18882;50.952;4.366;2022-12-07T08:26:25;4.30;99.90
32428;DHT22;18882;50.952;4.366;2022-12-07T08:28:52;4.30;99.90
32428;DHT22;18882;50.952;4.366;2022-12-07T08:31:18;4.40;99.90
32428;DHT22;18882;50.952;4.366;2022-12-07T08:33:48;4.50;99.90
32428;DHT22;18882;50.952;4.366;2022-12-07T08:36:13;4.40;99.90
32428;DHT22;18882;50.952;4.366;2022-12-07T08:38:41;4.60;99.90
32428;DHT22;18882;50.952;4.366;2022-12-07T08:41:07;4.70;99.90
32428;DHT22;18882;50.952;4.366;2022-12-07T08:43:33;4.90;99.90
32428;DHT22;18882;50.952;4.366;2022-12-07T08:46:09;4.90;99.90
32428;DHT22;18882;50.952;4.366;2022-12-07T08:48:41;5.10;99.90
32428;DHT22;18882;50.952;4.366;2022-12-07T08:54:01;5.30;99.90
32428;DHT22;18882;50.952;4.366;2022-12-07T08:56:35;5.40;99.90
32428;DHT22;18882;50.952;4.366;2022-12-07T08:59:39;5.60;99.90
32428;DHT22;18882;50.952;4.366;2022-12-07T09:02:07;5.70;99.90
32428;DHT22;18882;50.952;4.366;2022-12-07T09:04:35;6.00;99.90
32428;DHT22;18882;50.952;4.366;2022-12-07T09:07:04;6.10;99.90
32428;DHT22;18882;50.952;4.366;2022-12-07T09:09:32;6.10;99.90
32428;DHT22;18882;50.952;4.366;2022-12-07T09:12:09;6.10;99.90
32428;DHT22;18882;50.952;4.366;2022-12-07T09:14:38;6.10;99.90
32428;DHT22;18882;50.952;4.366;2022-12-07T09:17:09;6.10;99.90
32428;DHT22;18882;50.952;4.366;2022-12-07T09:19:36;6.10;99.90
32428;DHT22;18882;50.952;4.366;2022-12-07T09:22:02;6.10;99.90
32428;DHT22;18882;50.952;4.366;2022-12-07T09:24:30;6.30;99.90
32428;DHT22;18882;50.952;4.366;2022-12-07T09:26:56;6.30;99.90
32428;DHT22;18882;50.952;4.366;2022-12-07T09:29:22;6.40;99.90
32428;DHT22;18882;50.952;4.366;2022-12-07T09:31:48;6.50;99.90
32428;DHT22;18882;50.952;4.366;2022-12-07T09:34:13;6.70;99.90
32428;DHT22;18882;50.952;4.366;2022-12-07T09:36:39;6.70;99.90
32428;DHT22;18882;50.952;4.366;2022-12-07T09:39:05;6.90;99.90
32428;DHT22;18882;50.952;4.366;2022-12-07T09:41:31;7.00;99.90
32428;DHT22;18882;50.952;4.366;2022-12-07T09:44:06;7.20;99.90
32428;DHT22;18882;50.952;4.366;2022-12-07T09:46:38;7.30;99.90
32428;DHT22;18882;50.952;4.366;2022-12-07T09:49:05;7.40;99.90
32428;DHT22;18882;50.952;4.366;2022-12-07T09:51:34;7.20;99.90
32428;DHT22;18882;50.952;4.366;2022-12-07T09:54:00;7.30;99.90
32428;DHT22;18882;50.952;4.366;2022-12-07T09:56:29;7.50;99.90
32428;DHT22;18882;50.952;4.366;2022-12-07T09:59:00;7.60;99.90
32428;DHT22;18882;50.952;4.366;2022-12-07T10:01:33;7.80;99.90
32428;DHT22;18882;50.952;4.366;2022-12-07T10:04:17;8.00;99.90
32428;DHT22;18882;50.952;4.366;2022-12-07T10:06:43;7.80;99.90
32428;DHT22;18882;50.952;4.366;2022-12-07T10:09:16;7.80;99.90
32428;DHT22;18882;50.952;4.366;2022-12-07T10:14:31;7.90;99.90
32428;DHT22;18882;50.952;4.366;2022-12-07T10:16:58;7.90;99.90
32428;DHT22;18882;50.952;4.366;2022-12-07T10:19:31;7.90;99.90
32428;DHT22;18882;50.952;4.366;2022-12-07T10:22:04;7.80;99.90
32428;DHT22;18882;50.952;4.366;2022-12-07T10:24:30;7.70;99.90
32428;DHT22;18882;50.952;4.366;2022-12-07T10:26:56;7.70;99.90
32428;DHT22;18882;50.952;4.366;2022-12-07T10:29:42;7.70;99.90
32428;DHT22;18882;50.952;4.366;2022-12-07T10:34:42;7.60;99.90
32428;DHT22;18882;50.952;4.366;2022-12-07T10:42:28;7.60;99.90
32428;DHT22;18882;50.952;4.366;2022-12-07T10:45:13;7.90;99.90
32428;DHT22;18882;50.952;4.366;2022-12-07T10:51:41;8.10;99.90
32428;DHT22;18882;50.952;4.366;2022-12-07T10:53:55;8.10;99.90
32428;DHT22;18882;50.952;4.366;2022-12-07T10:56:39;8.30;99.90
32428;DHT22;18882;50.952;4.366;2022-12-07T11:07:21;8.50;99.90
32428;DHT22;18882;50.952;4.366;2022-12-07T11:18:03;8.10;99.90
32428;DHT22;18882;50.952;4.366;2022-12-07T11:23:13;7.90;99.90
32428;DHT22;18882;50.952;4.366;2022-12-07T11:26:20;8.00;99.90
32428;DHT22;18882;50.952;4.366;2022-12-07T11:29:07;8.10;99.90
32428;DHT22;18882;50.952;4.366;2022-12-07T11:36:51;8.10;99.90
32428;DHT22;18882;50.952;4.366;2022-12-07T11:41:49;8.30;99.90
32428;DHT22;18882;50.952;4.366;2022-12-07T11:47:07;8.50;99.90
32428;DHT22;18882;50.952;4.366;2022-12-07T11:52:18;8.70;99.90
32428;DHT22;18882;50.952;4.366;2022-12-07T11:54:48;8.70;99.90
32428;DHT22;18882;50.952;4.366;2022-12-07T11:57:24;8.80;99.90
32428;DHT22;18882;50.952;4.366;2022-12-07T12:00:04;8.80;99.90
32428;DHT22;18882;50.952;4.366;2022-12-07T12:02:52;8.70;99.90
32428;DHT22;18882;50.952;4.366;2022-12-07T12:05:22;8.80;99.90
32428;DHT22;18882;50.952;4.366;2022-12-07T12:10:35;8.80;99.90
32428;DHT22;18882;50.952;4.366;2022-12-07T12:13:24;8.60;99.90
32428;DHT22;18882;50.952;4.366;2022-12-07T12:16:09;8.40;99.90
32428;DHT22;18882;50.952;4.366;2022-12-07T12:21:20;8.40;99.90
32428;DHT22;18882;50.952;4.366;2022-12-07T12:26:23;8.60;99.90
32428;DHT22;18882;50.952;4.366;2022-12-07T12:28:56;8.50;99.90
32428;DHT22;18882;50.952;4.366;2022-12-07T12:34:01;8.60;99.90
32428;DHT22;18882;50.952;4.366;2022-12-07T12:36:44;8.50;99.90
32428;DHT22;18882;50.952;4.366;2022-12-07T12:39:17;8.50;99.90
32428;DHT22;18882;50.952;4.366;2022-12-07T12:46:51;8.70;99.90
32428;DHT22;18882;50.952;4.366;2022-12-07T12:51:54;8.90;99.90
32428;DHT22;18882;50.952;4.366;2022-12-07T12:54:24;8.90;99.90
32428;DHT22;18882;50.952;4.366;2022-12-07T12:57:22;9.10;99.90
32428;DHT22;18882;50.952;4.366;2022-12-07T13:04:55;9.00;99.90
32428;DHT22;18882;50.952;4.366;2022-12-07T13:18:34;9.20;99.90
32428;DHT22;18882;50.952;4.366;2022-12-07T13:23:30;9.20;99.90
32428;DHT22;18882;50.952;4.366;2022-12-07T13:26:04;9.10;99.90
32428;DHT22;18882;50.952;4.366;2022-12-07T13:28:37;9.00;99.90
32428;DHT22;18882;50.952;4.366;2022-12-07T13:33:37;8.90;99.90
32428;DHT22;18882;50.952;4.366;2022-12-07T13:36:03;8.90;99.90
32428;DHT22;18882;50.952;4.366;2022-12-07T13:38:34;9.00;99.90
32428;DHT22;18882;50.952;4.366;2022-12-07T13:41:15;9.00;99.90
32428;DHT22;18882;50.952;4.366;2022-12-07T13:43:49;9.10;99.90
32428;DHT22;18882;50.952;4.366;2022-12-07T13:46:15;9.10;99.90
32428;DHT22;18882;50.952;4.366;2022-12-07T13:48:49;9.10;99.90
32428;DHT22;18882;50.952;4.366;2022-12-07T13:51:26;9.00;99.90
32428;DHT22;18882;50.952;4.366;2022-12-07T13:54:00;9.00;99.90
32428;DHT22;18882;50.952;4.366;2022-12-07T13:56:31;8.90;99.90
32428;DHT22;18882;50.952;4.366;2022-12-07T13:58:57;8.80;99.90
32428;DHT22;18882;50.952;4.366;2022-12-07T14:01:24;8.60;99.90
32428;DHT22;18882;50.952;4.366;2022-12-07T14:03:50;8.40;99.90
32428;DHT22;18882;50.952;4.366;2022-12-07T14:06:25;8.20;99.90
32428;DHT22;18882;50.952;4.366;2022-12-07T14:09:06;8.30;99.90
32428;DHT22;18882;50.952;4.366;2022-12-07T14:11:32;8.30;99.90
32428;DHT22;18882;50.952;4.366;2022-12-07T14:14:00;8.20;99.90
32428;DHT22;18882;50.952;4.366;2022-12-07T14:16:30;8.30;99.90
32428;DHT22;18882;50.952;4.366;2022-12-07T14:18:59;8.30;99.90
32428;DHT22;18882;50.952;4.366;2022-12-07T14:21:32;8.30;99.90
32428;DHT22;18882;50.952;4.366;2022-12-07T14:24:19;8.30;99.90
32428;DHT22;18882;50.952;4.366;2022-12-07T14:26:47;8.20;99.90
32428;DHT22;18882;50.952;4.366;2022-12-07T14:31:51;8.30;99.90
32428;DHT22;18882;50.952;4.366;2022-12-07T14:34:22;8.30;99.90
32428;DHT22;18882;50.952;4.366;2022-12-07T14:36:49;8.30;99.90
32428;DHT22;18882;50.952;4.366;2022-12-07T14:39:14;8.30;99.90
32428;DHT22;18882;50.952;4.366;2022-12-07T14:41:40;8.30;99.90
32428;DHT22;18882;50.952;4.366;2022-12-07T14:44:20;8.40;99.90
32428;DHT22;18882;50.952;4.366;2022-12-07T14:46:47;8.30;99.90
32428;DHT22;18882;50.952;4.366;2022-12-07T14:49:13;8.30;99.90
32428;DHT22;18882;50.952;4.366;2022-12-07T14:51:40;8.30;99.90
32428;DHT22;18882;50.952;4.366;2022-12-07T14:54:16;8.20;99.90
32428;DHT22;18882;50.952;4.366;2022-12-07T14:56:43;8.20;99.90
32428;DHT22;18882;50.952;4.366;2022-12-07T14:59:10;8.20;99.90
32428;DHT22;18882;50.952;4.366;2022-12-07T15:01:36;8.10;99.90
32428;DHT22;18882;50.952;4.366;2022-12-07T15:04:02;8.10;99.90
32428;DHT22;18882;50.952;4.366;2022-12-07T15:06:27;8.10;99.90
32428;DHT22;18882;50.952;4.366;2022-12-07T15:08:53;8.00;99.90
32428;DHT22;18882;50.952;4.366;2022-12-07T15:11:20;8.00;99.90
32428;DHT22;18882;50.952;4.366;2022-12-07T15:13:46;7.90;99.90
32428;DHT22;18882;50.952;4.366;2022-12-07T15:16:30;7.90;99.90
32428;DHT22;18882;50.952;4.366;2022-12-07T15:18:56;8.00;99.90
32428;DHT22;18882;50.952;4.366;2022-12-07T15:21:22;7.90;99.90
32428;DHT22;18882;50.952;4.366;2022-12-07T15:23:47;7.90;99.90
32428;DHT22;18882;50.952;4.366;2022-12-07T15:26:13;8.00;99.90
32428;DHT22;18882;50.952;4.366;2022-12-07T15:28:40;7.90;99.90
32428;DHT22;18882;50.952;4.366;2022-12-07T15:31:16;7.90;99.90
32428;DHT22;18882;50.952;4.366;2022-12-07T15:33:43;7.80;99.90
32428;DHT22;18882;50.952;4.366;2022-12-07T15:36:19;7.80;99.90
32428;DHT22;18882;50.952;4.366;2022-12-07T15:38:46;7.70;99.90
32428;DHT22;18882;50.952;4.366;2022-12-07T15:41:12;7.80;99.90
32428;DHT22;18882;50.952;4.366;2022-12-07T15:43:38;7.80;99.90
32428;DHT22;18882;50.952;4.366;2022-12-07T15:46:22;7.80;99.90
32428;DHT22;18882;50.952;4.366;2022-12-07T15:48:48;7.80;99.90
32428;DHT22;18882;50.952;4.366;2022-12-07T15:51:13;7.70;99.90
32428;DHT22;18882;50.952;4.366;2022-12-07T15:53:39;7.70;99.90
32428;DHT22;18882;50.952;4.366;2022-12-07T15:56:08;7.70;99.90
32428;DHT22;18882;50.952;4.366;2022-12-07T15:58:34;7.60;99.90
32428;DHT22;18882;50.952;4.366;2022-12-07T16:01:00;7.60;99.90
32428;DHT22;18882;50.952;4.366;2022-12-07T16:03:27;7.60;99.90
32428;DHT22;18882;50.952;4.366;2022-12-07T16:05:53;7.60;99.90
32428;DHT22;18882;50.952;4.366;2022-12-07T16:08:19;7.60;99.90
32428;DHT22;18882;50.952;4.366;2022-12-07T16:10:45;7.70;99.90
32428;DHT22;18882;50.952;4.366;2022-12-07T16:13:11;7.70;99.90
32428;DHT22;18882;50.952;4.366;2022-12-07T16:15:39;7.60;99.90
32428;DHT22;18882;50.952;4.366;2022-12-07T16:18:05;7.60;99.90
32428;DHT22;18882;50.952;4.366;2022-12-07T16:20:31;7.70;99.90
32428;DHT22;18882;50.952;4.366;2022-12-07T16:22:56;7.50;99.90
32428;DHT22;18882;50.952;4.366;2022-12-07T16:25:22;7.50;99.90
32428;DHT22;18882;50.952;4.366;2022-12-07T16:27:48;7.50;99.90
32428;DHT22;18882;50.952;4.366;2022-12-07T16:30:14;7.40;99.90
32428;DHT22;18882;50.952;4.366;2022-12-07T16:32:41;7.50;99.90
32428;DHT22;18882;50.952;4.366;2022-12-07T16:35:08;7.40;99.90
32428;DHT22;18882;50.952;4.366;2022-12-07T16:37:34;7.30;99.90
32428;DHT22;18882;50.952;4.366;2022-12-07T16:40:00;7.30;99.90
32428;DHT22;18882;50.952;4.366;2022-12-07T16:42:25;7.40;99.90
32428;DHT22;18882;50.952;4.366;2022-12-07T16:44:52;7.40;99.90
32428;DHT22;18882;50.952;4.366;2022-12-07T16:47:17;7.40;99.90
32428;DHT22;18882;50.952;4.366;2022-12-07T16:49:43;7.40;99.90
32428;DHT22;18882;50.952;4.366;2022-12-07T16:52:09;7.40;99.90
32428;DHT22;18882;50.952;4.366;2022-12-07T16:54:35;7.40;99.90
32428;DHT22;18882;50.952;4.366;2022-12-07T16:57:01;7.40;99.90
32428;DHT22;18882;50.952;4.366;2022-12-07T16:59:27;7.40;99.90
32428;DHT22;18882;50.952;4.366;2022-12-07T17:01:52;7.30;99.90
32428;DHT22;18882;50.952;4.366;2022-12-07T17:04:18;7.30;99.90
32428;DHT22;18882;50.952;4.366;2022-12-07T17:06:44;7.20;99.90
32428;DHT22;18882;50.952;4.366;2022-12-07T17:09:09;7.10;99.90
32428;DHT22;18882;50.952;4.366;2022-12-07T17:11:37;7.10;99.90
32428;DHT22;18882;50.952;4.366;2022-12-07T17:14:03;7.20;99.90
32428;DHT22;18882;50.952;4.366;2022-12-07T17:16:47;7.20;99.90
32428;DHT22;18882;50.952;4.366;2022-12-07T17:19:17;7.20;99.90
32428;DHT22;18882;50.952;4.366;2022-12-07T17:21:43;7.20;99.90
32428;DHT22;18882;50.952;4.366;2022-12-07T17:24:11;7.20;99.90
32428;DHT22;18882;50.952;4.366;2022-12-07T17:26:37;7.30;99.90
32428;DHT22;18882;50.952;4.366;2022-12-07T17:29:05;7.30;99.90
32428;DHT22;18882;50.952;4.366;2022-12-07T17:31:31;7.20;99.90
32428;DHT22;18882;50.952;4.366;2022-12-07T17:33:57;7.20;99.90
32428;DHT22;18882;50.952;4.366;2022-12-07T17:36:26;7.20;99.90
32428;DHT22;18882;50.952;4.366;2022-12-07T17:38:52;7.20;99.90
32428;DHT22;18882;50.952;4.366;2022-12-07T17:41:20;7.20;99.90
32428;DHT22;18882;50.952;4.366;2022-12-07T17:44:07;7.10;99.90
32428;DHT22;18882;50.952;4.366;2022-12-07T17:46:33;7.10;99.90
32428;DHT22;18882;50.952;4.366;2022-12-07T17:49:00;7.10;99.90
32428;DHT22;18882;50.952;4.366;2022-12-07T17:51:26;6.90;99.90
32428;DHT22;18882;50.952;4.366;2022-12-07T17:54:11;6.80;99.90
32428;DHT22;18882;50.952;4.366;2022-12-07T17:56:37;6.90;99.90
32428;DHT22;18882;50.952;4.366;2022-12-07T17:59:04;6.90;99.90
32428;DHT22;18882;50.952;4.366;2022-12-07T18:01:30;6.90;99.90